HECA/CAI METAR and TAF weather

Enter ICAO airport designator
Station Type Date Time Source
HECA METAR 2019/12/11 17:30 UTC NOAA

HECA 111730Z 17007KT 6000 SCT025 BKN070 18/06 Q1013 NOSIG


Station Type Date Time Source
HECA Decoded METAR 2019/12/11 17:30 UTC NOAA

Cairo Airport, Egypt (HECA) 30-08N 031-24E 74M
Dec 11, 2019 - 12:30 PM EST / 2019.12.11 1730 UTC
Wind: from the S (170 degrees) at 8 MPH (7 KT):0
Visibility: 3 mile(s):0
Sky conditions: mostly cloudy
Temperature: 64 F (18 C)
Dew Point: 42 F (6 C)
Relative Humidity: 45%
Pressure (altimeter): 29.91 in. Hg (1013 hPa)
ob: HECA 111730Z 17007KT 6000 SCT025 BKN070 18/06 Q1013 NOSIG
cycle: 17

Station Type Date Time Source
HECA TAF 2019/12/11 18:51 UTC NOAA

TAF HECA 111700Z 1118/1224 17007KT 6000 SCT025 BKN070
TEMPO 1210/1218 1000 RA SA

Example: see airport list